createdAt,value
2017-10-22T00:00:40.523Z,1004.31
2017-10-22T00:01:40.584Z,1004.29
2017-10-22T00:03:33.592Z,1004.24
2017-10-22T00:04:33.629Z,1004.26
2017-10-22T00:06:26.610Z,1004.26
2017-10-22T00:07:26.672Z,1004.25
2017-10-22T00:09:19.677Z,1004.27
2017-10-22T00:10:19.718Z,1004.24
2017-10-22T00:12:12.720Z,1004.30
2017-10-22T00:13:12.759Z,1004.26
2017-10-22T00:15:05.747Z,1004.21
2017-10-22T00:16:05.805Z,1004.21
2017-10-22T00:17:58.813Z,1004.15
2017-10-22T00:18:58.848Z,1004.15
2017-10-22T00:20:51.841Z,1004.14
2017-10-22T00:21:51.899Z,1004.16
2017-10-22T00:23:44.905Z,1004.14
2017-10-22T00:24:44.943Z,1004.12
2017-10-22T00:26:37.931Z,1004.11
2017-10-22T00:27:37.992Z,1004.11
2017-10-22T00:29:30.997Z,1004.13
2017-10-22T00:30:31.036Z,1004.08
2017-10-22T00:32:24.552Z,1004.09
2017-10-22T00:33:24.586Z,1004.09
2017-10-22T00:35:17.574Z,1004.08
2017-10-22T00:36:17.629Z,1004.08
2017-10-22T00:38:10.713Z,1004.00
2017-10-22T00:39:10.673Z,1003.99
2017-10-22T00:41:03.656Z,1003.99
2017-10-22T00:42:03.717Z,1003.94
2017-10-22T00:43:56.731Z,1003.97
2017-10-22T00:44:56.771Z,1003.99
2017-10-22T00:46:49.762Z,1003.98
2017-10-22T00:47:49.822Z,1003.98
2017-10-22T00:49:42.825Z,1004.04
2017-10-22T00:50:42.865Z,1004.08
2017-10-22T00:52:35.871Z,1004.07
2017-10-22T00:53:35.909Z,1004.09
2017-10-22T00:55:28.891Z,1004.10
2017-10-22T00:56:28.953Z,1004.07
2017-10-22T00:58:21.958Z,1004.13
2017-10-22T00:59:21.996Z,1004.06
2017-10-22T01:01:14.979Z,1004.07
2017-10-22T01:02:15.039Z,1004.00
2017-10-22T01:04:08.044Z,1004.00
2017-10-22T01:05:08.081Z,1003.99
2017-10-22T01:07:01.064Z,1004.00
2017-10-22T01:08:01.124Z,1003.98
2017-10-22T01:09:54.136Z,1003.94
2017-10-22T01:10:54.176Z,1003.96
2017-10-22T01:12:47.178Z,1003.88
2017-10-22T01:13:47.218Z,1003.91
2017-10-22T01:15:40.206Z,1003.87
2017-10-22T01:16:40.261Z,1003.88
2017-10-22T01:18:33.269Z,1003.79
2017-10-22T01:19:33.308Z,1003.79
2017-10-22T01:21:26.290Z,1003.78
2017-10-22T01:22:26.363Z,1003.80
2017-10-22T01:24:19.355Z,1003.77
2017-10-22T01:25:19.393Z,1003.79
2017-10-22T01:27:12.377Z,1003.78
2017-10-22T01:28:12.436Z,1003.78
2017-10-22T01:30:05.441Z,1003.77
2017-10-22T01:31:05.482Z,1003.77
2017-10-22T01:32:58.998Z,1003.81
2017-10-22T01:33:59.030Z,1003.80
2017-10-22T01:35:52.018Z,1003.77
2017-10-22T01:36:52.077Z,1003.78
2017-10-22T01:38:45.079Z,1003.71
2017-10-22T01:39:45.117Z,1003.71
2017-10-22T01:41:38.105Z,1003.68
2017-10-22T01:42:38.163Z,1003.72
2017-10-22T01:44:31.164Z,1003.71
2017-10-22T01:45:31.202Z,1003.72
2017-10-22T01:47:24.191Z,1003.68
2017-10-22T01:48:24.248Z,1003.66
2017-10-22T01:50:17.250Z,1003.63
2017-10-22T01:51:17.292Z,1003.64
2017-10-22T01:53:10.336Z,1003.58
2017-10-22T01:54:10.336Z,1003.58
2017-10-22T01:56:03.319Z,1003.50
2017-10-22T01:57:03.688Z,1003.43
2017-10-22T01:58:56.387Z,1003.45
2017-10-22T01:59:56.423Z,1003.44
2017-10-22T02:01:49.411Z,1003.54
2017-10-22T02:02:49.469Z,1003.57
2017-10-22T02:04:42.472Z,1003.54
2017-10-22T02:05:42.512Z,1003.45
2017-10-22T02:07:35.495Z,1003.47
2017-10-22T02:08:35.555Z,1003.48
2017-10-22T02:10:28.558Z,1003.40
2017-10-22T02:11:28.597Z,1003.40
2017-10-22T02:13:21.604Z,1003.42
2017-10-22T02:14:21.652Z,1003.37
2017-10-22T02:16:14.628Z,1003.46
2017-10-22T02:17:14.686Z,1003.49
2017-10-22T02:19:07.695Z,1003.45
2017-10-22T02:20:07.731Z,1003.47
2017-10-22T02:22:00.715Z,1003.48
2017-10-22T02:23:00.776Z,1003.48
2017-10-22T02:24:53.781Z,1003.49
2017-10-22T02:25:53.817Z,1003.47
2017-10-22T02:27:46.801Z,1003.54
2017-10-22T02:28:46.861Z,1003.52
2017-10-22T02:30:39.863Z,1003.45
2017-10-22T02:31:39.904Z,1003.48
2017-10-22T02:33:33.422Z,1003.48
2017-10-22T02:34:33.454Z,1003.47
2017-10-22T02:36:26.440Z,1003.40
2017-10-22T02:37:26.499Z,1003.46
2017-10-22T02:39:19.507Z,1003.45
2017-10-22T02:40:19.546Z,1003.39
2017-10-22T02:42:12.534Z,1003.35
2017-10-22T02:43:12.598Z,1003.39
2017-10-22T02:45:05.633Z,1003.29
2017-10-22T02:46:05.634Z,1003.30
2017-10-22T02:47:58.620Z,1003.31
2017-10-22T02:48:58.675Z,1003.32
2017-10-22T02:50:51.678Z,1003.24
2017-10-22T02:51:51.717Z,1003.28
2017-10-22T02:53:44.723Z,1003.25
2017-10-22T02:54:44.761Z,1003.21
2017-10-22T02:56:37.745Z,1003.27
2017-10-22T02:57:37.805Z,1003.22
2017-10-22T02:59:30.807Z,1003.12
2017-10-22T03:00:30.848Z,1003.18
2017-10-22T03:02:23.829Z,1003.22
2017-10-22T03:03:23.889Z,1003.19
2017-10-22T03:05:16.895Z,1003.16
2017-10-22T03:06:16.935Z,1003.18
2017-10-22T03:08:09.915Z,1003.17
2017-10-22T03:09:09.976Z,1003.18
2017-10-22T03:11:02.980Z,1003.16
2017-10-22T03:12:03.020Z,1003.10
2017-10-22T03:13:56.022Z,1003.12
2017-10-22T03:14:56.061Z,1003.09
2017-10-22T03:16:49.049Z,1003.02
2017-10-22T03:17:49.108Z,1003.02
2017-10-22T03:19:42.112Z,1002.98
2017-10-22T03:20:42.152Z,1003.01
2017-10-22T03:22:35.136Z,1002.97
2017-10-22T03:23:35.198Z,1003.03
2017-10-22T03:25:28.203Z,1002.98
2017-10-22T03:26:28.242Z,1002.98
2017-10-22T03:28:21.224Z,1003.02
2017-10-22T03:29:21.285Z,1002.98
2017-10-22T03:31:14.291Z,1002.98
2017-10-22T03:32:14.329Z,1003.04
2017-10-22T03:34:07.343Z,1003.09
2017-10-22T03:35:07.372Z,1003.07
2017-10-22T03:37:00.353Z,1003.03
2017-10-22T03:38:00.415Z,1002.97
2017-10-22T03:39:53.425Z,1003.04
2017-10-22T03:40:53.462Z,1003.03
2017-10-22T03:42:46.442Z,1002.99
2017-10-22T03:43:46.504Z,1003.06
2017-10-22T03:45:39.508Z,1003.09
2017-10-22T03:46:39.547Z,1003.09
2017-10-22T03:48:32.529Z,1002.93
2017-10-22T03:49:32.589Z,1003.06
2017-10-22T03:51:25.594Z,1002.99
2017-10-22T03:52:25.632Z,1003.00
2017-10-22T03:54:18.635Z,1003.03
2017-10-22T03:55:18.675Z,1003.04
2017-10-22T03:57:11.663Z,1003.03
2017-10-22T03:58:11.723Z,1003.09
2017-10-22T04:00:04.723Z,1003.01
2017-10-22T04:01:04.763Z,1003.00
2017-10-22T04:02:57.750Z,1002.97
2017-10-22T04:03:57.808Z,1002.97
2017-10-22T04:05:50.813Z,1002.95
2017-10-22T04:06:50.853Z,1002.93
2017-10-22T04:08:43.837Z,1002.93
2017-10-22T04:09:43.896Z,1002.95
2017-10-22T04:11:36.904Z,1002.92
2017-10-22T04:12:36.944Z,1002.87
2017-10-22T04:14:29.948Z,1002.94
2017-10-22T04:15:29.988Z,1003.00
2017-10-22T04:17:22.974Z,1002.94
2017-10-22T04:18:23.031Z,1002.89
2017-10-22T04:20:16.037Z,1002.83
2017-10-22T04:21:16.073Z,1002.83
2017-10-22T04:23:09.061Z,1002.78
2017-10-22T04:24:09.117Z,1002.75
2017-10-22T04:26:02.122Z,1002.69
2017-10-22T04:27:02.160Z,1002.71
2017-10-22T04:28:55.149Z,1002.74
2017-10-22T04:29:55.204Z,1002.70
2017-10-22T04:31:48.209Z,1002.69
2017-10-22T04:32:48.248Z,1002.68
2017-10-22T04:34:41.253Z,1002.61
2017-10-22T04:35:41.292Z,1002.64
2017-10-22T04:37:34.279Z,1002.59
2017-10-22T04:38:34.336Z,1002.71
2017-10-22T04:40:27.338Z,1002.75
2017-10-22T04:41:27.379Z,1002.67
2017-10-22T04:43:20.360Z,1002.72
2017-10-22T04:44:20.421Z,1002.69
2017-10-22T04:46:13.432Z,1002.68
2017-10-22T04:47:13.471Z,1002.71
2017-10-22T04:49:06.458Z,1002.78
2017-10-22T04:50:06.514Z,1002.75
2017-10-22T04:51:59.516Z,1002.83
2017-10-22T04:52:59.556Z,1002.85
2017-10-22T04:54:52.563Z,1002.86
2017-10-22T04:55:52.601Z,1002.89
2017-10-22T04:57:45.584Z,1002.83
2017-10-22T04:58:45.645Z,1002.86
2017-10-22T05:00:38.647Z,1002.84
2017-10-22T05:01:38.686Z,1002.82
2017-10-22T05:03:31.669Z,1002.85
2017-10-22T05:04:31.728Z,1002.85
2017-10-22T05:06:24.732Z,1002.81
2017-10-22T05:07:24.772Z,1002.82
2017-10-22T05:09:17.756Z,1002.87
2017-10-22T05:10:17.816Z,1002.74
2017-10-22T05:12:10.832Z,1002.78
2017-10-22T05:13:10.869Z,1002.75
2017-10-22T05:15:03.879Z,1002.72
2017-10-22T05:16:03.920Z,1002.69
2017-10-22T05:17:56.901Z,1002.68
2017-10-22T05:18:56.960Z,1002.69
2017-10-22T05:20:49.965Z,1002.59
2017-10-22T05:21:50.012Z,1002.67
2017-10-22T05:23:42.992Z,1002.64
2017-10-22T05:24:43.047Z,1002.61
2017-10-22T05:26:36.049Z,1002.59
2017-10-22T05:27:36.088Z,1002.47
2017-10-22T05:29:29.581Z,1002.42
2017-10-22T05:30:29.638Z,1002.42
2017-10-22T05:32:22.645Z,1002.37
2017-10-22T05:33:22.682Z,1002.40
2017-10-22T05:35:15.689Z,1002.27
2017-10-22T05:36:15.727Z,1002.26
2017-10-22T05:38:08.713Z,1002.23
2017-10-22T05:39:08.777Z,1002.23
2017-10-22T05:41:01.781Z,1002.19
2017-10-22T05:42:01.830Z,1002.22
2017-10-22T05:43:54.802Z,1002.20
2017-10-22T05:44:54.862Z,1002.22
2017-10-22T05:46:47.869Z,1002.29
2017-10-22T05:47:47.907Z,1002.26
2017-10-22T05:49:40.892Z,1002.23
2017-10-22T05:50:40.946Z,1002.26
2017-10-22T05:52:33.950Z,1002.20
2017-10-22T05:53:33.988Z,1002.19
2017-10-22T05:55:26.993Z,1002.22
2017-10-22T05:56:27.031Z,1002.19
2017-10-22T05:58:20.017Z,1002.32
2017-10-22T05:59:20.073Z,1002.28
2017-10-22T06:01:13.078Z,1002.34
2017-10-22T06:02:13.116Z,1002.32
2017-10-22T06:04:06.098Z,1002.34
2017-10-22T06:05:06.158Z,1002.33
2017-10-22T06:06:59.161Z,1002.29
2017-10-22T06:07:59.198Z,1002.33
2017-10-22T06:09:52.184Z,1002.30
2017-10-22T06:10:52.242Z,1002.27
2017-10-22T06:12:45.251Z,1002.23
2017-10-22T06:13:45.289Z,1002.31
2017-10-22T06:15:38.293Z,1002.27
2017-10-22T06:16:38.339Z,1002.38
2017-10-22T06:18:31.318Z,1002.29
2017-10-22T06:19:31.372Z,1002.39
2017-10-22T06:21:24.377Z,1002.39
2017-10-22T06:22:24.418Z,1002.41
2017-10-22T06:24:17.395Z,1002.37
2017-10-22T06:25:17.454Z,1002.41
2017-10-22T06:27:10.456Z,1002.34
2017-10-22T06:28:10.493Z,1002.35
2017-10-22T06:30:03.475Z,1002.31
2017-10-22T06:31:03.538Z,1002.35
2017-10-22T06:32:57.050Z,1002.36
2017-10-22T06:33:57.082Z,1002.37
2017-10-22T06:35:50.089Z,1002.36
2017-10-22T06:36:50.123Z,1002.38
2017-10-22T06:38:43.110Z,1002.39
2017-10-22T06:39:43.165Z,1002.39
2017-10-22T06:41:36.170Z,1002.40
2017-10-22T06:42:36.208Z,1002.43
2017-10-22T06:44:29.189Z,1002.39
2017-10-22T06:45:29.249Z,1002.36
2017-10-22T06:47:22.250Z,1002.39
2017-10-22T06:48:22.290Z,1002.42
2017-10-22T06:50:15.283Z,1002.41
2017-10-22T06:51:15.337Z,1002.43
2017-10-22T06:53:08.341Z,1002.49
2017-10-22T06:54:08.379Z,1002.51
2017-10-22T06:56:01.382Z,1002.51
2017-10-22T06:57:01.420Z,1002.45
2017-10-22T06:58:54.404Z,1002.45
2017-10-22T06:59:54.466Z,1002.49
2017-10-22T07:01:47.467Z,1002.49
2017-10-22T07:02:47.506Z,1002.53
2017-10-22T07:04:40.491Z,1002.50
2017-10-22T07:05:40.545Z,1002.52
2017-10-22T07:07:33.548Z,1002.51
2017-10-22T07:08:33.587Z,1002.60
2017-10-22T07:10:26.571Z,1002.54
2017-10-22T07:11:26.629Z,1002.61
2017-10-22T07:13:19.636Z,1002.69
2017-10-22T07:14:19.672Z,1002.58
2017-10-22T07:16:12.678Z,1002.61
2017-10-22T07:17:12.723Z,1002.61
2017-10-22T07:19:05.704Z,1002.64
2017-10-22T07:20:05.761Z,1002.70
2017-10-22T07:21:58.768Z,1002.74
2017-10-22T07:22:58.799Z,1002.64
2017-10-22T07:24:51.784Z,1002.72
2017-10-22T07:25:51.842Z,1002.74
2017-10-22T07:27:44.846Z,1002.74
2017-10-22T07:28:44.887Z,1002.74
2017-10-22T07:30:37.871Z,1002.73
2017-10-22T07:31:37.930Z,1002.80
2017-10-22T07:33:31.441Z,1002.86
2017-10-22T07:34:31.478Z,1002.83
2017-10-22T07:36:24.484Z,1002.82
2017-10-22T07:37:24.524Z,1002.74
2017-10-22T07:39:17.505Z,1002.78
2017-10-22T07:40:17.562Z,1002.83
2017-10-22T07:42:10.607Z,1002.83
2017-10-22T07:43:10.609Z,1002.88
2017-10-22T07:45:03.590Z,1002.86
2017-10-22T07:46:03.652Z,1002.79
2017-10-22T07:47:56.654Z,1002.83
2017-10-22T07:48:56.692Z,1002.81
2017-10-22T07:50:49.677Z,1002.90
2017-10-22T07:51:49.742Z,1002.86
2017-10-22T07:53:42.762Z,1002.89
2017-10-22T07:54:42.808Z,1002.93
2017-10-22T07:56:35.819Z,1002.83
2017-10-22T07:57:35.859Z,1003.00
2017-10-22T07:59:28.840Z,1002.98
2017-10-22T08:00:28.907Z,1003.00
2017-10-22T08:02:21.910Z,1002.94
2017-10-22T08:03:21.945Z,1002.93
2017-10-22T08:05:14.931Z,1002.95
2017-10-22T08:06:14.993Z,1002.95
2017-10-22T08:08:08.004Z,1002.97
2017-10-22T08:09:08.039Z,1002.90
2017-10-22T08:11:01.034Z,1002.91
2017-10-22T08:12:01.101Z,1002.95
2017-10-22T08:13:54.108Z,1002.96
2017-10-22T08:14:54.141Z,1003.00
2017-10-22T08:16:47.159Z,1003.04
2017-10-22T08:17:47.194Z,1002.99
2017-10-22T08:19:40.201Z,1002.97
2017-10-22T08:20:40.244Z,1002.99
2017-10-22T08:22:33.247Z,1003.01
2017-10-22T08:23:33.285Z,1003.00
2017-10-22T08:25:26.278Z,1002.98
2017-10-22T08:26:26.341Z,1003.05
2017-10-22T08:28:19.348Z,1002.99
2017-10-22T08:29:19.385Z,1003.09
2017-10-22T08:31:12.365Z,1003.08
2017-10-22T08:32:12.427Z,1003.03
2017-10-22T08:34:05.433Z,1003.08
2017-10-22T08:35:05.503Z,1003.09
2017-10-22T08:36:58.488Z,1003.05
2017-10-22T08:37:58.515Z,1003.14
2017-10-22T08:39:51.503Z,1003.15
2017-10-22T08:40:51.559Z,1003.09
2017-10-22T08:42:44.573Z,1003.14
2017-10-22T08:43:44.605Z,1003.12
2017-10-22T08:45:37.593Z,1003.15
2017-10-22T08:46:37.649Z,1003.15
2017-10-22T08:48:30.670Z,1003.10
2017-10-22T08:49:30.709Z,1003.14
2017-10-22T08:51:23.692Z,1003.17
2017-10-22T08:52:23.751Z,1003.11
2017-10-22T08:54:16.766Z,1003.19
2017-10-22T08:55:16.803Z,1003.10
2017-10-22T08:57:09.806Z,1003.14
2017-10-22T08:58:09.845Z,1003.10
2017-10-22T09:00:02.832Z,1003.19
2017-10-22T09:01:02.891Z,1003.17
2017-10-22T09:02:55.896Z,1003.21
2017-10-22T09:03:55.936Z,1003.28
2017-10-22T09:05:48.924Z,1003.21
2017-10-22T09:06:48.980Z,1003.24
2017-10-22T09:08:41.985Z,1003.28
2017-10-22T09:09:42.026Z,1003.26
2017-10-22T09:11:35.012Z,1003.26
2017-10-22T09:12:35.070Z,1003.24
2017-10-22T09:14:28.074Z,1003.20
2017-10-22T09:15:28.113Z,1003.30
2017-10-22T09:17:21.118Z,1003.30
2017-10-22T09:18:21.155Z,1003.34
2017-10-22T09:20:14.144Z,1003.31
2017-10-22T09:21:14.202Z,1003.30
2017-10-22T09:23:07.209Z,1003.30
2017-10-22T09:24:07.252Z,1003.36
2017-10-22T09:26:00.240Z,1003.36
2017-10-22T09:27:00.298Z,1003.38
2017-10-22T09:28:53.303Z,1003.38
2017-10-22T09:29:53.367Z,1003.36
2017-10-22T09:31:46.326Z,1003.35
2017-10-22T09:32:46.387Z,1003.39
2017-10-22T09:34:39.394Z,1003.43
2017-10-22T09:35:39.430Z,1003.42
2017-10-22T09:37:32.436Z,1003.37
2017-10-22T09:38:32.475Z,1003.42
2017-10-22T09:40:25.463Z,1003.35
2017-10-22T09:41:25.519Z,1003.41
2017-10-22T09:43:18.525Z,1003.36
2017-10-22T09:44:18.565Z,1003.44
2017-10-22T09:46:11.550Z,1003.42
2017-10-22T09:47:11.615Z,1003.46
2017-10-22T09:49:04.618Z,1003.43
2017-10-22T09:50:04.655Z,1003.46
2017-10-22T09:51:57.667Z,1003.45
2017-10-22T09:52:57.705Z,1003.50
2017-10-22T09:54:50.715Z,1003.45
2017-10-22T09:55:50.757Z,1003.43
2017-10-22T09:57:43.777Z,1003.53
2017-10-22T09:58:43.815Z,1003.55
2017-10-22T10:00:36.800Z,1003.53
2017-10-22T10:01:36.861Z,1003.54
2017-10-22T10:03:29.865Z,1003.48
2017-10-22T10:04:29.903Z,1003.52
2017-10-22T10:06:22.889Z,1003.51
2017-10-22T10:07:22.948Z,1003.49
2017-10-22T10:09:15.957Z,1003.60
2017-10-22T10:10:15.993Z,1003.58
2017-10-22T10:12:08.999Z,1003.62
2017-10-22T10:13:09.048Z,1003.56
2017-10-22T10:15:02.042Z,1003.57
2017-10-22T10:16:02.082Z,1003.62
2017-10-22T10:17:55.085Z,1003.62
2017-10-22T10:18:55.123Z,1003.59
2017-10-22T10:20:48.111Z,1003.58
2017-10-22T10:21:48.181Z,1003.61
2017-10-22T10:23:41.183Z,1003.65
2017-10-22T10:24:41.379Z,1003.66
2017-10-22T10:26:34.200Z,1003.65
2017-10-22T10:27:34.255Z,1003.65
2017-10-22T10:29:27.260Z,1003.64
2017-10-22T10:30:27.299Z,1003.68
2017-10-22T10:32:20.367Z,1003.68
2017-10-22T10:33:20.344Z,1003.67
2017-10-22T10:35:13.329Z,1003.71
2017-10-22T10:36:13.387Z,1003.72
2017-10-22T10:38:06.399Z,1003.66
2017-10-22T10:39:06.433Z,1003.72
2017-10-22T10:40:59.420Z,1003.71
2017-10-22T10:41:59.479Z,1003.71
2017-10-22T10:43:52.484Z,1003.70
2017-10-22T10:44:52.571Z,1003.69
2017-10-22T10:46:45.506Z,1003.71
2017-10-22T10:47:45.571Z,1003.71
2017-10-22T10:49:38.571Z,1003.75
2017-10-22T10:50:38.611Z,1003.71
2017-10-22T10:52:31.614Z,1003.74
2017-10-22T10:53:31.656Z,1003.71
2017-10-22T10:55:24.638Z,1003.79
2017-10-22T10:56:24.699Z,1003.77
2017-10-22T10:58:17.705Z,1003.77
2017-10-22T10:59:17.743Z,1003.77
2017-10-22T11:01:10.727Z,1003.80
2017-10-22T11:02:10.817Z,1003.77
2017-10-22T11:04:03.809Z,1003.77
2017-10-22T11:05:03.829Z,1003.76
2017-10-22T11:06:56.820Z,1003.83
2017-10-22T11:07:56.877Z,1003.80
2017-10-22T11:09:49.879Z,1003.80
2017-10-22T11:10:49.919Z,1003.74
2017-10-22T11:12:42.924Z,1003.79
2017-10-22T11:13:42.961Z,1003.74
2017-10-22T11:15:35.945Z,1003.80
2017-10-22T11:16:36.009Z,1003.80
2017-10-22T11:18:29.009Z,1003.79
2017-10-22T11:19:29.048Z,1003.80
2017-10-22T11:21:22.041Z,1003.80
2017-10-22T11:22:22.101Z,1003.83
2017-10-22T11:24:15.108Z,1003.81
2017-10-22T11:25:15.153Z,1003.85
2017-10-22T11:27:08.136Z,1003.88
2017-10-22T11:28:08.190Z,1003.83
2017-10-22T11:30:01.202Z,1003.90
2017-10-22T11:31:01.242Z,1003.87
2017-10-22T11:32:54.243Z,1003.89
2017-10-22T11:33:54.283Z,1003.88
2017-10-22T11:35:47.272Z,1003.89
2017-10-22T11:36:47.326Z,1003.94
2017-10-22T11:38:40.340Z,1003.89
2017-10-22T11:39:40.372Z,1003.91
2017-10-22T11:41:33.359Z,1003.92
2017-10-22T11:42:33.415Z,1003.94
2017-10-22T11:44:26.929Z,1003.90
2017-10-22T11:45:26.965Z,1003.95
2017-10-22T11:47:19.958Z,1003.98
2017-10-22T11:48:20.015Z,1003.96
2017-10-22T11:50:13.058Z,1003.98
2017-10-22T11:51:13.061Z,1003.98
2017-10-22T11:53:06.073Z,1003.90
2017-10-22T11:54:06.129Z,1003.93
2017-10-22T11:55:59.104Z,1003.99
2017-10-22T11:56:59.158Z,1003.98
2017-10-22T11:58:53.679Z,1003.94
2017-10-22T11:59:53.730Z,1003.98
2017-10-22T12:01:46.695Z,1004.01
2017-10-22T12:02:46.759Z,1004.02
2017-10-22T12:04:39.778Z,1004.00
2017-10-22T12:05:39.802Z,1004.08
2017-10-22T12:07:32.794Z,1004.07
2017-10-22T12:08:32.852Z,1003.99
2017-10-22T12:10:25.879Z,1004.02
2017-10-22T12:11:25.912Z,1004.03
2017-10-22T12:13:18.924Z,1004.07
2017-10-22T12:14:18.943Z,1004.07
2017-10-22T12:16:11.924Z,1004.09
2017-10-22T12:17:11.984Z,1004.09
2017-10-22T12:19:04.999Z,1004.08
2017-10-22T12:20:05.027Z,1004.01
2017-10-22T12:21:58.015Z,1004.04
2017-10-22T12:22:58.093Z,1004.04
2017-10-22T12:24:51.118Z,1004.04
2017-10-22T12:25:51.117Z,1003.98
2017-10-22T12:27:44.631Z,1004.08
2017-10-22T12:28:44.166Z,1004.07
2017-10-22T12:30:37.182Z,1004.07
2017-10-22T12:31:38.178Z,1004.12
2017-10-22T12:33:30.248Z,1004.13
2017-10-22T12:34:30.266Z,1004.14
2017-10-22T12:36:23.300Z,1004.13
2017-10-22T12:37:23.355Z,1004.11
2017-10-22T12:39:16.316Z,1004.13
2017-10-22T12:40:16.355Z,1004.12
2017-10-22T12:42:09.343Z,1004.13
2017-10-22T12:43:09.407Z,1004.15
2017-10-22T12:45:02.411Z,1004.11
2017-10-22T12:46:02.451Z,1004.11
2017-10-22T12:47:55.438Z,1004.15
2017-10-22T12:48:55.495Z,1004.14
2017-10-22T12:50:48.504Z,1004.13
2017-10-22T12:51:48.541Z,1004.17
2017-10-22T12:53:41.550Z,1004.15
2017-10-22T12:54:41.588Z,1004.13
2017-10-22T12:56:34.577Z,1004.14
2017-10-22T12:57:34.637Z,1004.18
2017-10-22T12:59:27.647Z,1004.16
2017-10-22T13:00:27.686Z,1004.19
2017-10-22T13:02:20.672Z,1004.15
2017-10-22T13:03:20.729Z,1004.14
2017-10-22T13:05:13.735Z,1004.17
2017-10-22T13:06:13.775Z,1004.13
2017-10-22T13:08:06.767Z,1004.16
2017-10-22T13:09:06.825Z,1004.18
2017-10-22T13:10:59.832Z,1004.17
2017-10-22T13:11:59.881Z,1004.17
2017-10-22T13:13:52.880Z,1004.20
2017-10-22T13:14:52.970Z,1004.20
2017-10-22T13:16:45.911Z,1004.19
2017-10-22T13:17:45.967Z,1004.18
2017-10-22T13:19:38.973Z,1004.22
2017-10-22T13:20:39.013Z,1004.20
2017-10-22T13:22:32.002Z,1004.20
2017-10-22T13:23:32.059Z,1004.22
2017-10-22T13:25:25.064Z,1004.23
2017-10-22T13:26:25.120Z,1004.27
2017-10-22T13:28:18.095Z,1004.31
2017-10-22T13:29:18.163Z,1004.34
2017-10-22T13:31:11.199Z,1004.31
2017-10-22T13:32:11.212Z,1004.39
2017-10-22T13:34:04.209Z,1004.38
2017-10-22T13:35:04.248Z,1004.41
2017-10-22T13:36:57.239Z,1004.36
2017-10-22T13:37:57.297Z,1004.43
2017-10-22T13:39:50.304Z,1004.41
2017-10-22T13:40:50.344Z,1004.45
2017-10-22T13:42:43.332Z,1004.40
2017-10-22T13:43:43.391Z,1004.40
2017-10-22T13:45:36.409Z,1004.40
2017-10-22T13:46:36.437Z,1004.43
2017-10-22T13:48:29.427Z,1004.46
2017-10-22T13:49:29.492Z,1004.42
2017-10-22T13:51:22.539Z,1004.47
2017-10-22T13:52:22.533Z,1004.40
2017-10-22T13:54:15.540Z,1004.49
2017-10-22T13:55:15.579Z,1004.51
2017-10-22T13:57:08.571Z,1004.51
2017-10-22T13:58:08.635Z,1004.47
2017-10-22T14:00:02.155Z,1004.51
2017-10-22T14:01:02.190Z,1004.49
2017-10-22T14:02:55.188Z,1004.58
2017-10-22T14:03:55.242Z,1004.54
2017-10-22T14:05:48.251Z,1004.61
2017-10-22T14:06:48.290Z,1004.61
2017-10-22T14:08:41.278Z,1004.64
2017-10-22T14:09:41.337Z,1004.68
2017-10-22T14:11:34.349Z,1004.70
2017-10-22T14:12:34.390Z,1004.61
2017-10-22T14:14:27.404Z,1004.74
2017-10-22T14:15:27.436Z,1004.78
2017-10-22T14:17:20.425Z,1004.76
2017-10-22T14:18:20.482Z,1004.76
2017-10-22T14:20:13.491Z,1004.74
2017-10-22T14:21:13.529Z,1004.77
2017-10-22T14:23:06.516Z,1004.77
2017-10-22T14:24:06.575Z,1004.74
2017-10-22T14:25:59.582Z,1004.72
2017-10-22T14:26:59.626Z,1004.75
2017-10-22T14:28:52.620Z,1004.75
2017-10-22T14:29:52.683Z,1004.82
2017-10-22T14:31:45.690Z,1004.88
2017-10-22T14:32:45.729Z,1004.91
2017-10-22T14:34:38.737Z,1004.90
2017-10-22T14:35:38.780Z,1004.86
2017-10-22T14:37:31.765Z,1004.87
2017-10-22T14:38:31.825Z,1004.91
2017-10-22T14:40:24.835Z,1004.90
2017-10-22T14:41:24.871Z,1004.93
2017-10-22T14:43:17.858Z,1004.96
2017-10-22T14:44:17.915Z,1004.93
2017-10-22T14:46:10.974Z,1005.00
2017-10-22T14:47:10.961Z,1005.04
2017-10-22T14:49:03.950Z,1005.03
2017-10-22T14:50:04.008Z,1005.04
2017-10-22T14:51:57.013Z,1005.10
2017-10-22T14:52:57.053Z,1005.06
2017-10-22T14:54:50.060Z,1005.10
2017-10-22T14:55:50.101Z,1005.11
2017-10-22T14:57:43.089Z,1005.14
2017-10-22T14:58:43.146Z,1005.10
2017-10-22T15:00:36.158Z,1005.11
2017-10-22T15:01:36.204Z,1005.15
2017-10-22T15:03:29.191Z,1005.17
2017-10-22T15:04:29.246Z,1005.19
2017-10-22T15:06:22.255Z,1005.19
2017-10-22T15:07:22.295Z,1005.20
2017-10-22T15:09:15.282Z,1005.23
2017-10-22T15:10:15.342Z,1005.20
2017-10-22T15:12:08.345Z,1005.22
2017-10-22T15:13:08.385Z,1005.19
2017-10-22T15:15:01.392Z,1005.20
2017-10-22T15:16:01.431Z,1005.28
2017-10-22T15:17:54.418Z,1005.26
2017-10-22T15:18:54.477Z,1005.27
2017-10-22T15:20:47.486Z,1005.24
2017-10-22T15:21:47.527Z,1005.26
2017-10-22T15:23:40.506Z,1005.35
2017-10-22T15:24:40.565Z,1005.25
2017-10-22T15:26:33.572Z,1005.26
2017-10-22T15:27:33.610Z,1005.29
2017-10-22T15:29:26.596Z,1005.33
2017-10-22T15:30:26.753Z,1005.36
2017-10-22T15:32:19.670Z,1005.39
2017-10-22T15:33:19.707Z,1005.37
2017-10-22T15:35:12.712Z,1005.40
2017-10-22T15:36:12.751Z,1005.43
2017-10-22T15:38:05.740Z,1005.49
2017-10-22T15:39:05.799Z,1005.49
2017-10-22T15:40:59.314Z,1005.50
2017-10-22T15:41:59.351Z,1005.52
2017-10-22T15:43:52.339Z,1005.55
2017-10-22T15:44:52.396Z,1005.56
2017-10-22T15:46:45.400Z,1005.59
2017-10-22T15:47:45.440Z,1005.60
2017-10-22T15:49:38.423Z,1005.65
2017-10-22T15:50:38.485Z,1005.62
2017-10-22T15:52:31.496Z,1005.66
2017-10-22T15:53:31.536Z,1005.67
2017-10-22T15:55:24.568Z,1005.67
2017-10-22T15:56:24.583Z,1005.74
2017-10-22T15:58:17.568Z,1005.72
2017-10-22T15:59:17.630Z,1005.71
2017-10-22T16:01:10.636Z,1005.72
2017-10-22T16:02:10.674Z,1005.73
2017-10-22T16:04:03.662Z,1005.76
2017-10-22T16:05:03.721Z,1005.80
2017-10-22T16:06:56.727Z,1005.77
2017-10-22T16:07:56.768Z,1005.77
2017-10-22T16:09:49.755Z,1005.77
2017-10-22T16:10:49.815Z,1005.75
2017-10-22T16:12:42.817Z,1005.75
2017-10-22T16:13:42.856Z,1005.71
2017-10-22T16:15:35.861Z,1005.77
2017-10-22T16:16:35.900Z,1005.78
2017-10-22T16:18:28.888Z,1005.81
2017-10-22T16:19:28.944Z,1005.79
2017-10-22T16:21:21.954Z,1005.84
2017-10-22T16:22:21.995Z,1005.82
2017-10-22T16:24:14.986Z,1005.77
2017-10-22T16:25:15.046Z,1005.81
2017-10-22T16:27:08.051Z,1005.84
2017-10-22T16:28:08.086Z,1005.88
2017-10-22T16:30:01.074Z,1005.86
2017-10-22T16:31:01.134Z,1005.86
2017-10-22T16:32:54.138Z,1005.95
2017-10-22T16:33:54.181Z,1005.91
2017-10-22T16:35:47.181Z,1005.95
2017-10-22T16:36:47.221Z,1005.94
2017-10-22T16:38:40.210Z,1005.99
2017-10-22T16:39:40.267Z,1005.99
2017-10-22T16:41:33.280Z,1006.04
2017-10-22T16:42:33.349Z,1005.97
2017-10-22T16:44:26.305Z,1005.98
2017-10-22T16:45:26.365Z,1006.06
2017-10-22T16:47:19.375Z,1005.99
2017-10-22T16:48:19.412Z,1005.97
2017-10-22T16:50:12.398Z,1006.05
2017-10-22T16:51:12.456Z,1006.05
2017-10-22T16:53:05.484Z,1006.06
2017-10-22T16:54:05.498Z,1006.06
2017-10-22T16:55:58.504Z,1006.10
2017-10-22T16:56:58.546Z,1006.09
2017-10-22T16:58:51.530Z,1006.08
2017-10-22T16:59:51.587Z,1006.07
2017-10-22T17:01:44.592Z,1006.12
2017-10-22T17:02:44.631Z,1006.13
2017-10-22T17:04:37.620Z,1006.15
2017-10-22T17:05:37.682Z,1006.13
2017-10-22T17:07:30.685Z,1006.14
2017-10-22T17:08:30.718Z,1006.22
2017-10-22T17:10:23.708Z,1006.24
2017-10-22T17:11:23.767Z,1006.25
2017-10-22T17:13:16.771Z,1006.23
2017-10-22T17:14:16.818Z,1006.27
2017-10-22T17:16:09.819Z,1006.24
2017-10-22T17:17:09.855Z,1006.30
2017-10-22T17:19:02.842Z,1006.29
2017-10-22T17:20:02.906Z,1006.26
2017-10-22T17:21:55.930Z,1006.32
2017-10-22T17:25:47.955Z,1006.35
2017-10-22T17:26:48.006Z,1006.38
2017-10-22T17:28:40.976Z,1006.44